Time;durP1;ratioP1;P1;durP2;ratioP2;P2;SDS_P1;SDS_P2;PMS_P1;PMS_P2;Temp;Humidity;BMP_temperature;BMP_pressure;BME280_temperature;BME280_humidity;BME280_pressure;Samples;Min_cycle;Max_cycle;Signal;HPM_P1;HPM_P2
2022/12/05 00:01:17;;;;;;;1.75;1.20;;;;;;;3.94;100.00;92420.34;5091844;28;20056;-76
2022/12/05 00:03:43;;;;;;;1.98;1.35;;;;;;;4.06;100.00;92419.41;5092121;28;20043;-76
2022/12/05 00:06:09;;;;;;;1.50;1.05;;;;;;;3.95;100.00;92414.13;5074941;28;20033;-76
2022/12/05 00:08:34;;;;;;;2.05;1.20;;;;;;;4.02;100.00;92415.75;5071456;28;20032;-76
2022/12/05 00:11:00;;;;;;;2.83;1.60;;;;;;;3.94;100.00;92419.56;5073405;28;20050;-78
2022/12/05 00:13:25;;;;;;;1.77;1.10;;;;;;;3.95;100.00;92426.31;5073375;28;20056;-76
2022/12/05 00:15:51;;;;;;;2.22;1.42;;;;;;;3.91;100.00;92420.06;5071414;28;20467;-76
2022/12/05 00:18:17;;;;;;;2.72;1.58;;;;;;;3.94;100.00;92437.69;5072456;28;20036;-76
2022/12/05 00:20:47;;;;;;;3.03;1.80;;;;;;;3.81;100.00;92423.34;5076930;28;20040;-76
2022/12/05 00:23:12;;;;;;;4.13;1.95;;;;;;;3.74;100.00;92438.31;5093065;28;20107;-76
2022/12/05 00:25:38;;;;;;;3.55;1.98;;;;;;;3.72;100.00;92430.78;5092562;28;20131;-76
2022/12/05 00:28:04;;;;;;;3.53;2.00;;;;;;;3.66;100.00;92420.63;5091408;28;20043;-76
2022/12/05 00:30:30;;;;;;;3.83;1.90;;;;;;;3.67;100.00;92427.34;5074736;28;20042;-76
2022/12/05 00:32:56;;;;;;;3.25;1.80;;;;;;;3.73;100.00;92432.31;5092602;28;20063;-76
2022/12/05 00:35:22;;;;;;;2.70;1.60;;;;;;;3.84;100.00;92437.59;5092437;28;20047;-76
2022/12/05 00:37:47;;;;;;;2.95;1.70;;;;;;;3.79;100.00;92435.75;5074280;28;20020;-76
2022/12/05 00:40:13;;;;;;;3.78;1.90;;;;;;;3.73;100.00;92441.91;5091279;28;20121;-76
2022/12/05 00:42:39;;;;;;;3.50;1.80;;;;;;;3.69;100.00;92430.47;5092410;28;20039;-76
2022/12/05 00:45:05;;;;;;;3.45;2.00;;;;;;;3.66;100.00;92436.16;5090927;28;20034;-76
2022/12/05 00:47:34;;;;;;;2.97;1.80;;;;;;;3.66;100.00;92429.16;5091603;28;20035;-76
2022/12/05 00:50:00;;;;;;;6.18;1.50;;;;;;;3.68;100.00;92423.75;5090956;28;20040;-76
2022/12/05 00:52:25;;;;;;;2.10;1.45;;;;;;;3.67;100.00;92430.75;5090813;28;20044;-76
2022/12/05 00:54:51;;;;;;;2.70;1.60;;;;;;;3.67;100.00;92427.34;5092157;28;20413;-76
2022/12/05 00:57:17;;;;;;;1.58;1.17;;;;;;;3.84;100.00;92425.44;5091969;28;20040;-76
2022/12/05 00:59:42;;;;;;;2.30;1.30;;;;;;;3.80;100.00;92424.34;5074021;28;20051;-76
2022/12/05 01:02:08;;;;;;;1.90;1.38;;;;;;;3.77;100.00;92426.69;5073514;28;20147;-75
2022/12/05 01:04:33;;;;;;;2.92;1.50;;;;;;;3.74;100.00;92420.19;5090680;28;20512;-75
2022/12/05 01:06:59;;;;;;;1.92;1.35;;;;;;;3.71;100.00;92423.25;5092007;28;20160;-75
2022/12/05 01:09:25;;;;;;;2.15;1.42;;;;;;;3.72;100.00;92415.25;5091881;28;20040;-75
2022/12/05 01:11:51;;;;;;;2.00;1.35;;;;;;;3.71;100.00;92412.88;5091784;28;20028;-76
2022/12/05 01:14:18;;;;;;;2.40;1.40;;;;;;;3.71;100.00;92413.66;5090633;28;20366;-76
2022/12/05 01:16:46;;;;;;;1.95;1.35;;;;;;;3.72;100.00;92420.41;5090479;28;20032;-76
2022/12/05 01:19:15;;;;;;;1.60;1.10;;;;;;;3.74;100.00;92422.78;5107224;28;20036;-76
2022/12/05 01:21:41;;;;;;;2.38;1.50;;;;;;;3.76;100.00;92423.31;5091825;28;20397;-75
2022/12/05 01:24:07;;;;;;;2.00;1.35;;;;;;;3.80;100.00;92426.94;5090336;28;20047;-76
2022/12/05 01:26:33;;;;;;;2.47;1.63;;;;;;;3.91;100.00;92433.00;5090488;28;20043;-77
2022/12/05 01:28:59;;;;;;;5.05;2.10;;;;;;;3.85;100.00;92434.78;5090285;28;20397;-77
2022/12/05 01:31:28;;;;;;;2.92;2.00;;;;;;;3.75;100.00;92429.50;5073641;28;20137;-77
2022/12/05 01:33:56;;;;;;;3.83;2.10;;;;;;;3.77;100.00;92422.28;5090154;28;20085;-76
2022/12/05 01:36:23;;;;;;;3.28;1.90;;;;;;;3.79;100.00;92425.41;5091416;28;20024;-77
2022/12/05 01:38:49;;;;;;;3.60;2.20;;;;;;;3.74;100.00;92422.78;5090025;28;20386;-77
2022/12/05 01:41:25;;;;;;;3.10;1.90;;;;;;;3.73;100.00;92431.56;5091455;28;20036;-77
2022/12/05 01:43:53;;;;;;;3.13;1.75;;;;;;;3.77;100.00;92430.03;5107077;28;20036;-77
2022/12/05 01:46:19;;;;;;;2.55;1.50;;;;;;;3.80;100.00;92431.34;5090036;28;20055;-77
2022/12/05 01:48:45;;;;;;;2.58;1.50;;;;;;;3.87;100.00;92427.56;5091199;28;20398;-77
2022/12/05 01:51:11;;;;;;;2.45;1.48;;;;;;;3.95;100.00;92429.69;5090082;28;20071;-77
2022/12/05 01:53:37;;;;;;;2.75;1.60;;;;;;;3.99;100.00;92434.38;5091036;28;20072;-77
2022/12/05 01:56:03;;;;;;;2.90;1.50;;;;;;;3.98;100.00;92423.22;5091250;28;20040;-77
2022/12/05 01:58:40;;;;;;;2.95;1.40;;;;;;;3.94;100.00;92428.13;5090967;28;20043;-76
2022/12/05 02:01:05;;;;;;;3.22;1.70;;;;;;;3.93;100.00;92438.72;5089888;28;20098;-77
2022/12/05 02:03:32;;;;;;;2.85;1.38;;;;;;;4.03;100.00;92436.22;5073329;28;20123;-77
2022/12/05 02:05:58;;;;;;;2.72;1.30;;;;;;;3.86;100.00;92431.16;5090275;28;20336;-77
2022/12/05 02:08:27;;;;;;;3.05;1.58;;;;;;;3.84;100.00;92425.44;5090870;28;20036;-77
2022/12/05 02:10:55;;;;;;;2.70;1.48;;;;;;;3.79;100.00;92427.22;5091163;28;20126;-76
2022/12/05 02:13:33;;;;;;;2.63;1.38;;;;;;;3.77;100.00;92431.84;5091118;28;20038;-77
2022/12/05 02:16:04;;;;;;;1.90;1.30;;;;;;;3.88;100.00;92434.28;5091008;28;20374;-77
2022/12/05 02:18:54;;;;;;;2.28;1.23;;;;;;;3.90;100.00;92428.88;5090429;28;20123;-77
2022/12/05 02:21:39;;;;;;;2.55;1.45;;;;;;;3.87;100.00;92431.94;5089901;28;20032;-77
2022/12/05 02:24:32;;;;;;;2.15;1.30;;;;;;;3.84;100.00;92422.84;5089661;28;20505;-77
2022/12/05 02:27:13;;;;;;;2.13;1.25;;;;;;;3.85;100.00;92423.63;5090672;28;20079;-77
2022/12/05 02:30:08;;;;;;;2.35;1.30;;;;;;;3.80;100.00;92421.78;5094912;28;20082;-77
2022/12/05 02:32:54;;;;;;;1.95;1.30;;;;;;;3.79;100.00;92417.63;5095125;28;20028;-77
2022/12/05 02:35:29;;;;;;;1.67;1.20;;;;;;;3.88;100.00;92418.75;5093338;28;20371;-77
2022/12/05 02:38:03;;;;;;;1.10;1.00;;;;;;;3.88;100.00;92420.56;5094293;28;20490;-77
2022/12/05 02:40:46;;;;;;;1.67;1.20;;;;;;;3.84;100.00;92416.88;5093397;28;20081;-77
2022/12/05 02:43:29;;;;;;;1.42;1.00;;;;;;;3.82;100.00;92408.59;5093151;28;20039;-77
2022/12/05 02:45:59;;;;;;;1.67;1.20;;;;;;;3.92;100.00;92413.88;5093555;28;20488;-77
2022/12/05 02:48:27;;;;;;;2.63;1.30;;;;;;;3.91;100.00;92412.28;5094508;28;20512;-77
2022/12/05 02:50:55;;;;;;;1.90;1.33;;;;;;;3.91;100.00;92413.06;5093220;28;20032;-76
2022/12/05 02:53:24;;;;;;;2.10;1.38;;;;;;;3.85;100.00;92416.66;5094267;28;20281;-77
2022/12/05 02:55:51;;;;;;;1.42;1.10;;;;;;;3.83;100.00;92421.28;5094538;28;20055;-77
2022/12/05 02:58:22;;;;;;;2.28;1.30;;;;;;;3.77;100.00;92419.69;5093063;28;20431;-77
2022/12/05 03:00:52;;;;;;;1.83;1.30;;;;;;;3.74;100.00;92426.13;5094358;28;20032;-77
2022/12/05 03:03:21;;;;;;;3.03;1.30;;;;;;;3.70;100.00;92417.28;5094214;28;20459;-77
2022/12/05 03:06:08;;;;;;;3.20;1.35;;;;;;;3.77;100.00;92417.09;5094064;28;20048;-77
2022/12/05 03:08:44;;;;;;;1.95;1.33;;;;;;;3.71;100.00;92407.72;5093626;28;20101;-77
2022/12/05 03:11:10;;;;;;;2.65;1.65;;;;;;;3.69;100.00;92412.34;5093789;28;20039;-77
2022/12/05 03:13:47;;;;;;;1.85;1.40;;;;;;;3.68;100.00;92408.22;5093912;28;20386;-77
2022/12/05 03:16:23;;;;;;;1.85;1.30;;;;;;;3.75;100.00;92406.97;5092807;28;20042;-77
2022/12/05 03:18:55;;;;;;;3.90;1.23;;;;;;;3.80;100.00;92419.19;5092035;28;20036;-77
2022/12/05 03:21:20;;;;;;;;;;;;;;;3.79;100.00;92417.63;5093752;28;20085;-77
2022/12/05 03:23:55;;;;;;;2.13;1.30;;;;;;;3.77;100.00;92411.91;5093619;28;19938;-77
2022/12/05 03:26:51;;;;;;;1.23;1.08;;;;;;;3.83;100.00;92416.13;5092666;28;20318;-77
2022/12/05 03:29:20;;;;;;;1.40;1.00;;;;;;;3.78;100.00;92413.47;5075450;28;20036;-76
2022/12/05 03:31:57;;;;;;;1.98;1.30;;;;;;;3.73;100.00;92409.03;5092579;28;20082;-77
2022/12/05 03:34:45;;;;;;;2.70;1.17;;;;;;;3.79;100.00;92406.50;5093600;28;20118;-77
2022/12/05 03:37:23;;;;;;;1.67;1.20;;;;;;;3.80;100.00;92410.63;5082846;28;20036;-77
2022/12/05 03:40:02;;;;;;;1.08;0.93;;;;;;;3.86;100.00;92409.66;5108049;28;20442;-77
2022/12/05 03:42:34;;;;;;;1.75;1.20;;;;;;;3.76;100.00;92400.00;5092436;28;20024;-76
2022/12/05 03:45:06;;;;;;;1.20;1.00;;;;;;;3.76;100.00;92407.78;5092161;28;20688;-77
2022/12/05 03:47:46;;;;;;;1.75;1.30;;;;;;;3.71;100.00;92402.53;5092217;28;20512;-77
2022/12/05 03:50:22;;;;;;;1.50;1.05;;;;;;;3.73;100.00;92403.06;5093287;28;20039;-77
2022/12/05 03:52:54;;;;;;;1.73;1.10;;;;;;;3.61;100.00;92392.88;5093197;28;20048;-77
2022/12/05 03:55:25;;;;;;;1.20;1.10;;;;;;;3.61;100.00;92390.28;5093294;28;20347;-77
2022/12/05 03:58:01;;;;;;;0.98;0.85;;;;;;;3.67;100.00;92385.91;5091854;28;20028;-77
2022/12/05 04:00:31;;;;;;;1.95;1.20;;;;;;;3.60;100.00;92390.53;5093248;28;20043;-77
2022/12/05 04:03:14;;;;;;;1.65;1.10;;;;;;;3.55;100.00;92392.03;5093224;28;20028;-77
2022/12/05 04:05:48;;;;;;;2.33;1.48;;;;;;;3.53;100.00;92390.72;5091399;28;20166;-77
2022/12/05 04:08:22;;;;;;;1.20;1.10;;;;;;;3.64;100.00;92386.41;5093172;28;20032;-77
2022/12/05 04:10:50;;;;;;;1.70;1.05;;;;;;;3.58;100.00;92384.81;5092688;28;20070;-76
2022/12/05 04:13:25;;;;;;;1.10;1.00;;;;;;;3.58;100.00;92384.81;5092565;28;20067;-77
2022/12/05 04:18:56;;;;;;;1.73;1.10;;;;;;;3.63;100.00;92371.94;5091394;28;20436;-77
2022/12/05 04:21:37;;;;;;;1.77;1.20;;;;;;;3.59;100.00;92376.03;5091306;28;20097;-76
2022/12/05 04:27:03;;;;;;;1.23;0.93;;;;;;;3.60;100.00;92378.34;5091501;28;20130;-77
2022/12/05 04:29:33;;;;;;;1.17;0.90;;;;;;;3.63;100.00;92371.94;5093483;28;20087;-78
2022/12/05 04:32:07;;;;;;;1.52;1.00;;;;;;;3.63;100.00;92377.09;5094514;28;20028;-77
2022/12/05 04:34:36;;;;;;;1.00;0.90;;;;;;;3.67;100.00;92378.16;5091091;28;20032;-77
2022/12/05 04:37:11;;;;;;;0.93;0.88;;;;;;;3.78;100.00;92379.81;5074113;28;20397;-77
2022/12/05 04:39:43;;;;;;;0.98;0.88;;;;;;;3.78;100.00;92382.38;5090827;28;20035;-77
2022/12/05 04:42:17;;;;;;;;;;;;;;;3.73;100.00;92387.53;5091424;28;20092;-77
2022/12/05 04:44:52;;;;;;;1.20;1.00;;;;;;;3.69;100.00;92387.25;5091075;28;20011;-77
2022/12/05 04:47:21;;;;;;;1.23;0.95;;;;;;;3.69;100.00;92389.03;5090816;28;20036;-76
2022/12/05 04:49:47;;;;;;;2.40;0.98;;;;;;;3.66;100.00;92390.31;5090333;28;20032;-76
2022/12/05 04:52:14;;;;;;;1.17;0.93;;;;;;;3.69;100.00;92395.03;5071603;28;20084;-76
2022/12/05 04:54:47;;;;;;;1.42;1.10;;;;;;;3.74;100.00;92387.28;5091573;28;20471;-77
2022/12/05 04:57:23;;;;;;;1.27;1.00;;;;;;;3.93;100.00;92389.50;5090750;28;20040;-76
2022/12/05 04:59:49;;;;;;;1.77;1.10;;;;;;;3.76;100.00;92389.66;5091946;28;20114;-77
2022/12/05 05:02:22;;;;;;;1.17;0.90;;;;;;;3.70;100.00;92393.22;5091726;28;20052;-76
2022/12/05 05:04:51;;;;;;;0.80;0.80;;;;;;;3.85;100.00;92395.94;5091816;28;20039;-76
2022/12/05 05:07:18;;;;;;;1.27;1.10;;;;;;;3.74;100.00;92395.06;5091929;28;20028;-76
2022/12/05 05:09:44;;;;;;;1.90;1.10;;;;;;;3.73;100.00;92400.47;5091878;28;20036;-76
2022/12/05 05:12:11;;;;;;;0.88;0.80;;;;;;;3.65;100.00;92393.19;5090698;28;20117;-76
2022/12/05 05:14:36;;;;;;;1.42;1.00;;;;;;;3.67;100.00;92391.91;5090582;28;20401;-76
2022/12/05 05:17:02;;;;;;;1.27;1.05;;;;;;;3.68;100.00;92400.44;5090822;28;20040;-76
2022/12/05 05:19:28;;;;;;;1.60;1.10;;;;;;;3.65;100.00;92404.31;5091887;28;20024;-76
2022/12/05 05:21:53;;;;;;;1.05;0.90;;;;;;;3.74;100.00;92408.00;5090517;28;20335;-77
2022/12/05 05:24:22;;;;;;;1.10;1.00;;;;;;;3.65;100.00;92406.13;5056501;28;20039;-76
2022/12/05 05:26:48;;;;;;;1.77;1.20;;;;;;;3.64;100.00;92407.13;5073402;28;20165;-76
2022/12/05 05:29:15;;;;;;;1.20;1.00;;;;;;;3.58;100.00;92405.50;5092048;28;20054;-75
2022/12/05 05:31:40;;;;;;;1.42;1.15;;;;;;;3.53;100.00;92411.44;5090623;28;20107;-75
2022/12/05 05:34:07;;;;;;;2.03;1.20;;;;;;;3.49;100.00;92413.75;5090435;28;20068;-76
2022/12/05 05:36:33;;;;;;;1.60;1.20;;;;;;;3.51;100.00;92416.88;5091538;28;20024;-75
2022/12/05 05:39:00;;;;;;;2.65;1.38;;;;;;;3.51;100.00;92413.47;5089569;28;20044;-76
2022/12/05 05:41:29;;;;;;;1.48;1.15;;;;;;;3.50;100.00;92411.94;5073637;28;20187;-76
2022/12/05 05:43:55;;;;;;;1.60;1.10;;;;;;;3.46;100.00;92418.59;5089772;28;20438;-76
2022/12/05 05:46:23;;;;;;;1.52;1.20;;;;;;;3.53;100.00;92407.06;5090323;28;20040;-77
2022/12/05 05:48:49;;;;;;;1.52;1.27;;;;;;;3.52;100.00;92413.25;5089949;28;20501;-77
2022/12/05 05:51:17;;;;;;;4.07;2.50;;;;;;;3.58;100.00;92413.28;5073786;28;20035;-76
2022/12/05 05:53:43;;;;;;;1.52;1.02;;;;;;;3.86;100.00;92422.59;5090396;28;20104;-76
2022/12/05 05:56:12;;;;;;;1.65;1.13;;;;;;;3.96;100.00;92426.06;5090143;28;20032;-76
2022/12/05 05:58:38;;;;;;;2.03;1.40;;;;;;;3.88;100.00;92433.50;5091794;28;20044;-79
2022/12/05 06:01:10;;;;;;;4.15;1.10;;;;;;;3.85;100.00;92432.19;5091325;28;20040;-76
2022/12/05 06:03:37;;;;;;;1.98;1.23;;;;;;;3.73;100.00;92431.56;5090813;28;20120;-76
2022/12/05 06:06:09;;;;;;;2.17;1.42;;;;;;;3.65;100.00;92434.59;5088719;28;20086;-75
2022/12/05 06:08:38;;;;;;;3.40;1.60;;;;;;;3.63;100.00;92432.25;5080561;28;20444;-77
2022/12/05 06:11:05;;;;;;;1.67;1.30;;;;;;;3.66;100.00;92434.34;5070427;28;20033;-76
2022/12/05 06:13:30;;;;;;;3.67;1.20;;;;;;;3.74;100.00;92426.13;5053488;28;20016;-76
2022/12/05 06:15:56;;;;;;;1.50;1.20;;;;;;;3.66;100.00;92433.56;5072159;28;20112;-76
2022/12/05 06:18:22;;;;;;;1.60;1.20;;;;;;;3.60;100.00;92430.13;5069495;28;20488;-74
2022/12/05 06:20:55;;;;;;;4.80;3.10;;;;;;;3.57;100.00;92427.25;5069403;28;20413;-76
2022/12/05 06:23:22;;;;;;;3.67;1.90;;;;;;;3.55;100.00;92436.03;5070851;28;20060;-75
2022/12/05 06:25:49;;;;;;;3.17;1.70;;;;;;;3.54;100.00;92437.06;5070547;28;20033;-75
2022/12/05 06:28:16;;;;;;;1.55;1.13;;;;;;;3.77;100.00;92442.22;5052716;28;20240;-75
2022/12/05 06:30:42;;;;;;;1.92;1.27;;;;;;;3.93;100.00;92447.25;5070741;28;20052;-75
2022/12/05 06:33:08;;;;;;;1.50;1.10;;;;;;;3.84;100.00;92453.16;5069577;28;20106;-75
2022/12/05 06:35:33;;;;;;;3.88;2.13;;;;;;;3.76;100.00;92456.97;5069398;28;20064;-76
2022/12/05 06:37:59;;;;;;;1.77;1.30;;;;;;;3.73;100.00;92457.44;5070620;28;20593;-76
2022/12/05 06:40:25;;;;;;;152.48;4.40;;;;;;;3.82;100.00;92453.38;5070574;28;20454;-76
2022/12/05 06:42:51;;;;;;;12.55;1.80;;;;;;;3.71;100.00;92456.91;5069404;28;20101;-76
2022/12/05 06:45:16;;;;;;;2.20;1.50;;;;;;;3.61;100.00;92452.41;5070514;28;20029;-76
2022/12/05 06:47:42;;;;;;;3.00;1.88;;;;;;;3.57;100.00;92453.16;5070422;28;20036;-76
2022/12/05 06:50:08;;;;;;;3.00;2.05;;;;;;;3.54;100.00;92462.97;5070487;28;20234;-76
2022/12/05 06:52:34;;;;;;;4.40;2.80;;;;;;;3.52;100.00;92461.63;5070410;28;20391;-76
2022/12/05 06:54:59;;;;;;;2.58;1.70;;;;;;;3.52;100.00;92467.59;5069307;28;20075;-76
2022/12/05 06:57:27;;;;;;;3.00;1.60;;;;;;;3.50;100.00;92467.06;5052456;28;20040;-76
2022/12/05 07:01:37;;;;;;;2.72;1.70;;;;;;;3.49;100.00;92460.31;5070390;28;20423;-76
2022/12/05 07:02:40;;;;;;;2.00;1.48;;;;;;;3.50;100.00;92461.09;5069079;28;20121;-76
2022/12/05 07:05:07;;;;;;;2.22;1.50;;;;;;;3.52;100.00;92457.25;5069110;28;20045;-76
2022/12/05 07:07:33;;;;;;;1.33;1.00;;;;;;;3.52;100.00;92457.25;5070288;28;20039;-76
2022/12/05 07:09:59;;;;;;;0.70;0.70;;;;;;;3.48;100.00;92458.75;5069259;28;20021;-76
2022/12/05 07:12:24;;;;;;;1.10;0.80;;;;;;;3.58;100.00;92465.03;5069183;28;20041;-75
2022/12/05 07:14:50;;;;;;;0.70;0.70;;;;;;;3.64;100.00;92474.44;5073794;28;20118;-75
2022/12/05 07:17:20;;;;;;;0.75;0.73;;;;;;;3.70;100.00;92473.47;5073739;28;20060;-75
2022/12/05 07:19:50;;;;;;;1.27;0.70;;;;;;;3.64;100.00;92474.44;5072658;28;20106;-77
2022/12/05 07:22:18;;;;;;;1.23;0.80;;;;;;;3.60;100.00;92471.53;5072344;28;20055;-75
2022/12/05 07:24:44;;;;;;;0.88;0.80;;;;;;;3.54;100.00;92472.53;5072457;28;20035;-75
2022/12/05 07:27:09;;;;;;;0.68;0.65;;;;;;;3.63;100.00;92478.84;5055901;28;20102;-76
2022/12/05 07:29:35;;;;;;;1.13;1.00;;;;;;;3.68;100.00;92478.09;5073487;28;20044;-76
2022/12/05 07:32:01;;;;;;;9.70;1.73;;;;;;;3.69;100.00;92487.44;5074073;28;20039;-75
2022/12/05 07:34:26;;;;;;;2.38;1.55;;;;;;;3.60;100.00;92484.47;5073539;28;20031;-76
2022/12/05 07:36:52;;;;;;;1.48;1.10;;;;;;;3.53;100.00;92484.69;5074054;28;20046;-76
2022/12/05 07:39:18;;;;;;;1.67;1.15;;;;;;;3.60;100.00;92494.84;5072215;28;20542;-76
2022/12/05 07:41:43;;;;;;;1.65;1.30;;;;;;;3.59;100.00;92493.28;5072443;28;20028;-76
2022/12/05 07:44:14;;;;;;;2.85;1.38;;;;;;;3.83;100.00;92493.00;5072046;28;20037;-76
2022/12/05 07:46:40;;;;;;;2.22;1.40;;;;;;;3.77;100.00;92489.59;5073390;28;20528;-76
2022/12/05 07:49:06;;;;;;;1.10;0.95;;;;;;;3.79;100.00;92479.00;5071983;28;20452;-75
2022/12/05 07:51:32;;;;;;;1.33;1.00;;;;;;;3.92;100.00;92476.78;5071821;28;20101;-76
2022/12/05 07:53:58;;;;;;;1.30;1.00;;;;;;;3.80;100.00;92480.56;5055410;28;20361;-76
2022/12/05 07:56:24;;;;;;;1.42;1.10;;;;;;;3.84;100.00;92479.81;5073491;28;20044;-76
2022/12/05 07:58:50;;;;;;;0.80;0.80;;;;;;;3.79;100.00;92482.38;5073031;28;20067;-76
2022/12/05 08:01:21;;;;;;;0.88;0.80;;;;;;;3.81;100.00;92479.53;5072972;28;20036;-75
2022/12/05 08:03:48;;;;;;;1.23;1.00;;;;;;;3.84;100.00;92479.81;5072987;28;20033;-76
2022/12/05 08:06:16;;;;;;;2.92;1.15;;;;;;;3.81;100.00;92476.94;5072868;28;20028;-76
2022/12/05 08:08:42;;;;;;;1.40;1.05;;;;;;;3.89;100.00;92486.84;5072843;28;20067;-76
2022/12/05 08:11:13;;;;;;;13.23;1.75;;;;;;;3.71;100.00;92485.38;5071511;28;20406;-75
2022/12/05 08:13:40;;;;;;;153.55;5.15;;;;;;;3.65;100.00;92488.97;5072791;28;20486;-75
2022/12/05 08:16:09;;;;;;;188.68;5.28;;;;;;;3.60;100.00;92488.88;5071042;28;20474;-75
2022/12/05 08:18:54;;;;;;;501.50;14.25;;;;;;;3.57;100.00;92491.97;5071995;28;20040;-77
2022/12/05 08:21:20;;;;;;;370.63;9.02;;;;;;;3.40;100.00;92489.44;5072627;28;20036;-80
2022/12/05 08:23:46;;;;;;;429.02;9.82;;;;;;;3.35;100.00;92492.75;5069862;28;20399;-77
2022/12/05 08:26:19;;;;;;;620.60;15.95;;;;;;;3.34;100.00;92498.97;5072744;28;20119;-77
2022/12/05 08:28:44;;;;;;;463.33;10.52;;;;;;;3.34;100.00;92496.38;5071566;28;20040;-76
2022/12/05 08:31:13;;;;;;;180.85;5.18;;;;;;;3.31;100.00;92500.22;5072661;28;20028;-76
2022/12/05 08:33:39;;;;;;;24.15;2.20;;;;;;;3.32;100.00;92512.13;5071117;28;20075;-76
2022/12/05 08:36:07;;;;;;;327.65;8.38;;;;;;;3.33;100.00;92505.16;5088111;28;20029;-76
2022/12/05 08:38:34;;;;;;;52.20;2.55;;;;;;;3.34;100.00;92506.72;5071032;28;20051;-77
2022/12/05 08:41:04;;;;;;;102.75;3.50;;;;;;;3.36;100.00;92503.91;5087977;28;20036;-77
2022/12/05 08:43:30;;;;;;;291.80;7.50;;;;;;;3.38;100.00;92518.16;5070988;28;20037;-77
2022/12/05 08:45:56;;;;;;;31.38;2.28;;;;;;;3.64;100.00;92519.22;5072031;28;20442;-77
2022/12/05 08:48:25;;;;;;;88.78;3.35;;;;;;;3.55;100.00;92515.50;5072992;28;20039;-77
2022/12/05 08:50:50;;;;;;;369.08;8.95;;;;;;;3.63;100.00;92519.47;5088738;28;20143;-78
2022/12/05 08:53:16;;;;;;;20.17;2.30;;;;;;;3.61;100.00;92521.53;5089202;28;20045;-80
2022/12/05 08:55:42;;;;;;;34.65;2.22;;;;;;;3.64;100.00;92521.81;5098280;28;20036;-77
2022/12/05 08:58:08;;;;;;;45.63;2.50;;;;;;;3.72;100.00;92533.56;5092172;28;20040;-77
2022/12/05 09:00:33;;;;;;;17.65;2.35;;;;;;;3.71;100.00;92525.00;5092846;28;20478;-77
2022/12/05 09:02:59;;;;;;;57.40;3.38;;;;;;;3.80;100.00;92524.56;5111557;28;20035;-80
2022/12/05 09:05:26;;;;;;;44.35;2.33;;;;;;;3.97;100.00;92531.22;5095259;28;20043;-78
2022/12/05 09:07:51;;;;;;;289.15;9.48;;;;;;;3.87;100.00;92535.50;5095378;28;20032;-81
2022/12/05 09:10:18;;;;;;;152.15;6.18;;;;;;;3.85;100.00;92540.16;5093650;28;20062;-78
2022/12/05 09:12:44;;;;;;;334.25;10.60;;;;;;;3.74;100.00;92537.47;5110636;28;20127;-77
2022/12/05 09:15:11;;;;;;;244.20;6.80;;;;;;;3.79;100.00;92549.69;5076614;28;20064;-77
2022/12/05 09:17:38;;;;;;;5.22;1.52;;;;;;;3.68;100.00;92548.78;5097219;28;20035;-78
2022/12/05 09:20:05;;;;;;;2.35;1.30;;;;;;;3.63;100.00;92551.31;5095136;28;20378;-77
2022/12/05 09:22:31;;;;;;;2.35;1.40;;;;;;;3.60;100.00;92538.06;5092347;28;20066;-79
2022/12/05 09:24:59;;;;;;;6.93;1.75;;;;;;;3.65;100.00;92535.56;5095120;28;20032;-78
2022/12/05 09:27:27;;;;;;;22.48;2.45;;;;;;;3.61;100.00;92531.88;5093481;28;20459;-78
2022/12/05 09:29:53;;;;;;;7.95;2.33;;;;;;;3.57;100.00;92530.78;5094782;28;20442;-78
2022/12/05 09:32:18;;;;;;;23.98;2.47;;;;;;;3.72;100.00;92534.34;5095354;28;20036;-78
2022/12/05 09:34:44;;;;;;;2.55;1.60;;;;;;;3.69;100.00;92534.84;5094947;28;20062;-78
2022/12/05 09:37:10;;;;;;;3.58;1.60;;;;;;;3.66;100.00;92537.88;5094606;28;20546;-77
2022/12/05 09:39:35;;;;;;;4.53;1.52;;;;;;;3.67;100.00;92541.25;5093898;28;20035;-78
2022/12/05 09:45:36;;;;;;;1.00;0.90;;;;;;;3.63;100.00;92529.84;5097283;28;20032;-79
2022/12/05 09:48:19;;;;;;;1.52;0.95;;;;;;;3.69;100.00;92519.31;5093817;28;20451;-77
2022/12/05 09:51:15;;;;;;;0.90;0.85;;;;;;;3.96;100.00;92529.69;5092822;28;20115;-78
2022/12/05 09:53:43;;;;;;;0.90;0.90;;;;;;;4.05;100.00;92526.63;5092360;28;20134;-78
2022/12/05 09:59:15;;;;;;;11.18;4.72;;;;;;;3.90;100.00;92524.69;5096926;28;20035;-78
2022/12/05 10:02:01;;;;;;;2.22;1.40;;;;;;;3.86;100.00;92526.97;5113161;28;20047;-78
2022/12/05 10:07:29;;;;;;;;;;;;;;;4.00;100.00;92534.38;5091930;28;20504;-79
2022/12/05 10:10:33;;;;;;;78.95;2.90;;;;;;;3.94;100.00;92533.50;5112655;28;19908;-78
2022/12/05 10:13:06;;;;;;;2.45;1.50;;;;;;;3.93;100.00;92532.75;5095023;28;20040;-78
2022/12/05 10:15:42;;;;;;;25.58;1.88;;;;;;;3.86;100.00;92526.97;5094891;28;20515;-78
2022/12/05 10:18:39;;;;;;;5.90;1.80;;;;;;;3.80;100.00;92522.75;5093592;28;20028;-78
2022/12/05 10:21:13;;;;;;;5.30;1.45;;;;;;;4.01;100.00;92526.34;5094191;28;20557;-76
2022/12/05 10:23:59;;;;;;;3.03;1.70;;;;;;;3.84;100.00;92523.84;5106950;28;20032;-77
2022/12/05 10:27:03;;;;;;;3.65;1.98;;;;;;;3.79;100.00;92517.84;5091099;28;20486;-76
2022/12/05 10:29:34;;;;;;;2.60;1.45;;;;;;;4.09;100.00;92525.13;5089146;28;20040;-77
2022/12/05 10:32:11;;;;;;;2.20;1.40;;;;;;;4.05;100.00;92526.63;5090070;28;20051;-77
2022/12/05 10:34:40;;;;;;;2.30;1.50;;;;;;;3.93;100.00;92524.97;5091120;28;20031;-77
2022/12/05 10:37:19;;;;;;;3.20;1.80;;;;;;;3.96;100.00;92515.91;5091352;28;20046;-77
2022/12/05 10:39:46;;;;;;;2.63;1.70;;;;;;;4.13;100.00;92514.03;5090095;28;20040;-77
2022/12/05 10:42:27;;;;;;;4.60;1.70;;;;;;;4.20;100.00;92513.03;5091506;28;20049;-76
2022/12/05 10:44:57;;;;;;;10.05;2.15;;;;;;;4.15;100.00;92511.19;5090763;28;20096;-76
2022/12/05 10:47:23;;;;;;;92.70;4.18;;;;;;;4.07;100.00;92504.63;5091603;28;20036;-76
2022/12/05 10:49:49;;;;;;;208.68;6.07;;;;;;;3.94;100.00;92505.81;5094009;28;20181;-76
2022/12/05 10:52:15;;;;;;;23.42;2.42;;;;;;;3.89;100.00;92508.34;5094222;28;20059;-77
2022/12/05 10:54:48;;;;;;;139.02;4.60;;;;;;;4.01;100.00;92504.81;5095409;28;20031;-77
2022/12/05 10:57:22;;;;;;;;;;;;;;;3.93;100.00;92503.47;5111404;28;20170;-77
2022/12/05 10:59:47;;;;;;;16.25;2.15;;;;;;;3.99;100.00;92505.09;5094838;28;19916;-77
2022/12/05 11:02:33;;;;;;;127.55;4.38;;;;;;;4.00;100.00;92498.09;5093552;28;20039;-77
2022/12/05 11:05:02;;;;;;;3.70;1.88;;;;;;;4.05;100.00;92495.53;5094837;28;20401;-76
2022/12/05 11:07:31;;;;;;;5.80;1.80;;;;;;;4.23;100.00;92490.00;5096585;28;20477;-78
2022/12/05 11:10:03;;;;;;;2.45;1.40;;;;;;;4.25;100.00;92495.72;5096171;28;20383;-77
2022/12/05 11:12:34;;;;;;;2.58;1.50;;;;;;;4.21;100.00;92488.69;5095481;28;20040;-77
2022/12/05 11:15:14;;;;;;;2.53;1.43;;;;;;;4.16;100.00;92487.59;5095472;28;20032;-77
2022/12/05 11:17:40;;;;;;;2.47;1.27;;;;;;;4.14;100.00;92492.28;5097426;28;20274;-78
2022/12/05 11:20:15;;;;;;;2.10;1.20;;;;;;;4.10;100.00;92485.25;5113735;28;20038;-77
2022/12/05 11:22:40;;;;;;;1.90;1.20;;;;;;;4.09;100.00;92492.22;5095466;28;20042;-77
2022/12/05 11:25:29;;;;;;;2.22;1.42;;;;;;;4.14;100.00;92491.47;5095539;28;20557;-77
2022/12/05 11:27:56;;;;;;;164.10;4.38;;;;;;;4.11;100.00;92490.16;5095372;28;20042;-77
2022/12/05 11:30:26;;;;;;;9.48;2.40;;;;;;;4.05;100.00;92487.78;5093855;28;20032;-77
2022/12/05 11:33:19;;;;;;;2.45;1.40;;;;;;;4.03;100.00;92488.03;5094025;28;20028;-77
2022/12/05 11:35:46;;;;;;;3.80;1.60;;;;;;;4.01;100.00;92481.50;5095467;28;20086;-77
2022/12/05 11:38:20;;;;;;;2.92;1.45;;;;;;;3.97;100.00;92484.59;5094517;28;20028;-77
2022/12/05 11:40:49;;;;;;;2.30;1.40;;;;;;;3.97;100.00;92482.00;5094074;28;20386;-77
2022/12/05 11:43:40;;;;;;;2.38;1.48;;;;;;;3.97;100.00;92481.25;5095804;28;20111;-77
2022/12/05 11:46:16;;;;;;;5.28;1.52;;;;;;;3.98;100.00;92477.59;5093748;28;20039;-77
2022/12/05 11:49:00;;;;;;;2.55;1.50;;;;;;;3.97;100.00;92473.47;5094873;28;20046;-77
2022/12/05 11:51:39;;;;;;;3.38;1.60;;;;;;;3.99;100.00;92478.41;5094287;28;20053;-77
2022/12/05 11:54:51;;;;;;;2.50;1.45;;;;;;;4.02;100.00;92464.97;5095149;28;20134;-77
2022/12/05 11:57:38;;;;;;;2.22;1.38;;;;;;;4.05;100.00;92470.41;5095131;28;20085;-78
2022/12/05 12:00:36;;;;;;;2.42;1.50;;;;;;;4.06;100.00;92466.81;5092913;28;20040;-77
2022/12/05 12:03:17;;;;;;;2.60;1.40;;;;;;;4.10;100.00;92467.88;5094594;28;20072;-77